createdAt,value
2022-12-19T00:01:32.476Z,94523.03
2022-12-19T00:03:04.725Z,94528.75
2022-12-19T00:04:36.543Z,94533.66
2022-12-19T00:06:08.278Z,94525.53
2022-12-19T00:07:39.859Z,94541.88
2022-12-19T00:09:11.741Z,94544.31
2022-12-19T00:10:43.596Z,94542.47
2022-12-19T00:12:19.199Z,94544.72
2022-12-19T00:13:51.157Z,94543.50
2022-12-19T00:15:22.840Z,94548.59
2022-12-19T00:16:54.463Z,94546.53
2022-12-19T00:18:26.015Z,94557.31
2022-12-19T00:19:57.612Z,94552.75
2022-12-19T00:21:30.446Z,94557.84
2022-12-19T00:23:02.083Z,94553.13
2022-12-19T00:24:33.815Z,94556.34
2022-12-19T00:26:18.822Z,94558.00
2022-12-19T00:27:50.443Z,94560.63
2022-12-19T00:29:22.049Z,94555.94
2022-12-19T00:30:54.510Z,94562.88
2022-12-19T00:32:28.042Z,94558.38
2022-12-19T00:34:00.135Z,94555.72
2022-12-19T00:35:31.670Z,94557.56
2022-12-19T00:37:03.409Z,94565.31
2022-12-19T00:38:35.058Z,94566.94
2022-12-19T00:40:07.556Z,94574.25
2022-12-19T00:41:41.545Z,94571.59
2022-12-19T00:43:14.015Z,94577.34
2022-12-19T00:44:45.755Z,94573.28
2022-12-19T00:46:17.435Z,94566.34
2022-12-19T00:47:49.066Z,94571.84
2022-12-19T00:49:20.977Z,94563.75
2022-12-19T00:50:58.714Z,94574.34
2022-12-19T00:52:30.410Z,94569.03
2022-12-19T00:54:03.956Z,94569.84
2022-12-19T00:55:38.250Z,94567.78
2022-12-19T00:57:09.774Z,94564.75
2022-12-19T00:58:46.654Z,94567.41
2022-12-19T01:00:18.915Z,94575.94
2022-12-19T01:01:50.553Z,94573.09
2022-12-19T01:03:22.391Z,94567.78
2022-12-19T01:04:53.949Z,94568.59
2022-12-19T01:06:25.776Z,94568.59
2022-12-19T01:07:57.511Z,94573.91
2022-12-19T01:09:29.031Z,94573.06
2022-12-19T01:11:00.573Z,94569.75
2022-12-19T01:12:47.437Z,94576.47
2022-12-19T01:14:22.784Z,94572.78
2022-12-19T01:15:55.833Z,94580.34
2022-12-19T01:17:27.394Z,94582.31
2022-12-19T01:18:59.337Z,94571.28
2022-12-19T01:20:33.329Z,94581.31
2022-12-19T01:22:04.951Z,94578.03
2022-12-19T01:23:36.980Z,94580.13
2022-12-19T01:25:08.761Z,94578.09
2022-12-19T01:26:40.366Z,94571.59
2022-12-19T01:28:12.376Z,94570.56
2022-12-19T01:29:51.818Z,94566.06
2022-12-19T01:31:24.559Z,94571.38
2022-12-19T01:32:56.434Z,94566.06
2022-12-19T01:34:28.068Z,94570.56
2022-12-19T01:36:01.889Z,94573.28
2022-12-19T01:37:33.475Z,94563.69
2022-12-19T01:39:05.056Z,94569.81
2022-12-19T01:40:36.599Z,94567.78
2022-12-19T01:42:18.472Z,94575.78
2022-12-19T01:43:58.884Z,94574.63
2022-12-19T01:45:35.403Z,94571.63
2022-12-19T01:47:09.063Z,94564.91
2022-12-19T01:48:42.245Z,94569.41
2022-12-19T01:50:14.612Z,94562.66
2022-12-19T01:51:47.155Z,94561.44
2022-12-19T01:53:18.703Z,94560.03
2022-12-19T01:54:50.271Z,94561.66
2022-12-19T01:56:26.359Z,94563.91
2022-12-19T01:57:57.916Z,94560.47
2022-12-19T01:59:33.542Z,94556.59
2022-12-19T02:01:05.236Z,94562.72
2022-12-19T02:02:44.221Z,94564.59
2022-12-19T02:04:15.863Z,94562.97
2022-12-19T02:05:47.488Z,94560.94
2022-12-19T02:07:19.279Z,94561.34
2022-12-19T02:08:50.912Z,94557.81
2022-12-19T02:10:22.546Z,94564.34
2022-12-19T02:11:54.260Z,94560.28
2022-12-19T02:13:25.761Z,94559.25
2022-12-19T02:15:01.021Z,94550.88
2022-12-19T02:16:37.582Z,94553.09
2022-12-19T02:18:21.556Z,94555.53
2022-12-19T02:19:53.056Z,94563.88
2022-12-19T02:21:39.591Z,94561.41
2022-12-19T02:23:23.844Z,94559.94
2022-12-19T02:24:58.227Z,94563.00
2022-12-19T02:26:44.304Z,94568.31
2022-12-19T02:28:30.004Z,94559.53
2022-12-19T02:30:08.214Z,94559.69
2022-12-19T02:31:50.160Z,94559.13
2022-12-19T02:33:41.153Z,94557.03
2022-12-19T02:35:31.136Z,94559.31
2022-12-19T02:37:04.181Z,94558.31
2022-12-19T02:38:53.768Z,94557.97
2022-12-19T02:40:28.708Z,94571.84
2022-12-19T02:42:00.380Z,94568.63
2022-12-19T02:43:32.607Z,94575.75
2022-12-19T02:45:04.691Z,94570.88
2022-12-19T02:46:36.345Z,94584.91
2022-12-19T02:48:09.194Z,94578.56
2022-12-19T02:49:41.032Z,94578.97
2022-12-19T02:51:12.662Z,94572.66
2022-12-19T02:52:45.160Z,94576.47
2022-12-19T02:54:16.854Z,94577.75
2022-12-19T02:55:51.633Z,94568.97
2022-12-19T02:57:24.452Z,94582.22
2022-12-19T02:59:02.258Z,94572.84
2022-12-19T03:00:34.299Z,94578.16
2022-12-19T03:02:21.773Z,94573.47
2022-12-19T03:04:12.302Z,94576.13
2022-12-19T03:05:50.919Z,94574.53
2022-12-19T03:07:51.541Z,94566.44
2022-12-19T03:09:49.083Z,94572.16
2022-12-19T03:11:20.680Z,94574.19
2022-12-19T03:12:56.860Z,94564.22
2022-12-19T03:14:28.344Z,94560.53
2022-12-19T03:16:00.007Z,94555.88
2022-12-19T03:17:34.646Z,94557.72
2022-12-19T03:19:08.839Z,94557.31
2022-12-19T03:20:43.215Z,94552.63
2022-12-19T03:22:15.046Z,94555.06
2022-12-19T03:23:46.581Z,94554.25
2022-12-19T03:25:18.647Z,94561.38
2022-12-19T03:26:57.673Z,94561.19
2022-12-19T03:28:38.179Z,94560.97
2022-12-19T03:30:10.771Z,94567.06
2022-12-19T03:31:42.303Z,94561.34
2022-12-19T03:33:14.297Z,94568.88
2022-12-19T03:35:04.860Z,94558.91
2022-12-19T03:36:37.551Z,94563.53
2022-12-19T03:38:09.415Z,94561.13
2022-12-19T03:39:41.040Z,94569.66
2022-12-19T03:41:13.709Z,94571.09
2022-12-19T03:43:03.746Z,94576.38
2022-12-19T03:44:35.942Z,94582.25
2022-12-19T03:46:19.744Z,94578.56
2022-12-19T03:47:51.855Z,94588.38
2022-12-19T03:49:23.577Z,94579.59
2022-12-19T03:51:03.824Z,94575.75
2022-12-19T03:52:35.452Z,94581.06
2022-12-19T03:54:11.632Z,94580.88
2022-12-19T03:55:47.964Z,94578.63
2022-12-19T03:57:20.575Z,94578.00
2022-12-19T03:59:00.786Z,94586.16
2022-12-19T04:00:33.539Z,94586.72
2022-12-19T04:02:05.307Z,94592.03
2022-12-19T04:03:37.502Z,94584.28
2022-12-19T04:05:09.401Z,94584.69
2022-12-19T04:06:40.959Z,94582.03
2022-12-19T04:08:12.640Z,94582.25
2022-12-19T04:09:44.260Z,94587.38
2022-12-19T04:11:16.782Z,94583.91
2022-12-19T04:12:53.386Z,94588.19
2022-12-19T04:14:31.589Z,94594.72
2022-12-19T04:16:06.069Z,94596.34
2022-12-19T04:17:39.649Z,94602.69
2022-12-19T04:19:17.149Z,94603.91
2022-12-19T04:21:06.016Z,94608.41
2022-12-19T04:22:56.328Z,94613.31
2022-12-19T04:24:29.382Z,94609.63
2022-12-19T04:26:02.443Z,94614.13
2022-12-19T04:27:34.535Z,94615.75
2022-12-19T04:29:06.433Z,94612.50
2022-12-19T04:30:38.097Z,94623.72
2022-12-19T04:32:09.671Z,94623.13
2022-12-19T04:33:41.314Z,94621.91
2022-12-19T04:35:13.026Z,94625.78
2022-12-19T04:36:44.676Z,94622.34
2022-12-19T04:38:16.213Z,94622.53
2022-12-19T04:39:47.817Z,94620.28
2022-12-19T04:41:19.501Z,94619.09
2022-12-19T04:42:51.150Z,94613.81
2022-12-19T04:44:22.856Z,94616.47
2022-12-19T04:45:57.491Z,94617.28
2022-12-19T04:47:29.494Z,94617.69
2022-12-19T04:49:01.908Z,94615.44
2022-12-19T04:50:34.068Z,94620.13
2022-12-19T04:52:05.792Z,94622.41
2022-12-19T04:53:39.529Z,94619.53
2022-12-19T04:55:11.068Z,94623.81
2022-12-19T04:56:43.175Z,94622.59
2022-12-19T04:58:20.261Z,94627.88
2022-12-19T04:59:53.379Z,94625.03
2022-12-19T05:01:25.144Z,94629.31
2022-12-19T05:02:57.422Z,94621.16
2022-12-19T05:04:29.067Z,94627.72
2022-12-19T05:06:04.135Z,94629.75
2022-12-19T05:07:36.231Z,94628.31
2022-12-19T05:09:07.890Z,94636.25
2022-12-19T05:10:39.489Z,94637.28
2022-12-19T05:12:11.789Z,94635.44
2022-12-19T05:13:43.474Z,94642.78
2022-12-19T05:15:15.069Z,94633.84
2022-12-19T05:16:46.561Z,94628.13
2022-12-19T05:18:18.221Z,94638.72
2022-12-19T05:19:49.725Z,94644.41
2022-12-19T05:21:21.890Z,94645.22
2022-12-19T05:22:53.345Z,94643.19
2022-12-19T05:24:24.968Z,94645.03
2022-12-19T05:26:00.014Z,94643.59
2022-12-19T05:27:31.599Z,94643.22
2022-12-19T05:29:03.455Z,94644.22
2022-12-19T05:30:34.940Z,94648.50
2022-12-19T05:32:06.564Z,94641.38
2022-12-19T05:33:38.434Z,94649.72
2022-12-19T05:35:10.546Z,94651.16
2022-12-19T05:36:42.169Z,94657.44
2022-12-19T05:38:13.751Z,94649.94
2022-12-19T05:39:45.442Z,94643.84
2022-12-19T05:41:17.877Z,94649.53
2022-12-19T05:42:49.457Z,94647.28
2022-12-19T05:44:21.033Z,94656.22
2022-12-19T05:45:52.548Z,94658.28
2022-12-19T05:47:24.384Z,94653.19
2022-12-19T05:48:55.980Z,94649.31
2022-12-19T05:50:28.031Z,94646.88
2022-12-19T05:51:59.701Z,94651.78
2022-12-19T05:53:31.366Z,94652.56
2022-12-19T05:55:02.998Z,94653.00
2022-12-19T05:56:34.554Z,94650.50
2022-12-19T05:58:06.080Z,94644.84
2022-12-19T05:59:37.725Z,94647.25
2022-12-19T06:01:10.321Z,94644.63
2022-12-19T06:02:42.023Z,94646.44
2022-12-19T06:04:13.716Z,94651.34
2022-12-19T06:05:45.342Z,94644.03
2022-12-19T06:07:20.926Z,94653.38
2022-12-19T06:08:56.312Z,94651.56
2022-12-19T06:10:27.944Z,94649.94
2022-12-19T06:11:59.464Z,94648.09
2022-12-19T06:13:31.237Z,94650.94
2022-12-19T06:15:02.858Z,94649.13
2022-12-19T06:16:34.449Z,94659.06
2022-12-19T06:18:06.373Z,94661.53
2022-12-19T06:19:38.052Z,94662.34
2022-12-19T06:21:14.659Z,94662.34
2022-12-19T06:22:46.117Z,94668.25
2022-12-19T06:25:00.995Z,94663.75
2022-12-19T06:29:09.117Z,94678.19
2022-12-19T06:32:36.285Z,94678.81
2022-12-19T06:34:55.237Z,94678.81
2022-12-19T06:36:20.348Z,94681.66
2022-12-19T06:37:54.354Z,94682.25
2022-12-19T06:39:28.118Z,94683.69
2022-12-19T06:41:18.131Z,94689.19
2022-12-19T06:42:49.700Z,94684.50
2022-12-19T06:44:21.174Z,94690.44
2022-12-19T06:45:52.826Z,94689.22
2022-12-19T06:47:24.741Z,94684.75
2022-12-19T06:48:56.521Z,94687.78
2022-12-19T06:50:28.105Z,94693.72
2022-12-19T06:52:03.912Z,94690.25
2022-12-19T06:53:38.028Z,94688.81
2022-12-19T06:55:09.990Z,94693.31
2022-12-19T06:56:41.891Z,94704.31
2022-12-19T06:58:14.085Z,94703.25
2022-12-19T06:59:45.835Z,94707.97
2022-12-19T07:01:20.996Z,94706.34
2022-12-19T07:03:15.655Z,94712.84
2022-12-19T07:05:07.507Z,94715.53
2022-12-19T07:06:39.235Z,94715.91
2022-12-19T07:08:10.962Z,94713.88
2022-12-19T07:09:42.676Z,94715.69
2022-12-19T07:11:14.332Z,94722.22
2022-12-19T07:12:48.618Z,94723.25
2022-12-19T07:14:34.560Z,94724.03
2022-12-19T07:16:12.298Z,94726.28
2022-12-19T07:17:44.131Z,94724.25
2022-12-19T07:19:15.795Z,94714.25
2022-12-19T07:20:47.472Z,94717.31
2022-12-19T07:22:30.862Z,94718.94
2022-12-19T07:24:02.458Z,94717.09
2022-12-19T07:25:34.199Z,94725.88
2022-12-19T07:27:06.478Z,94721.59
2022-12-19T07:28:38.239Z,94723.03
2022-12-19T07:30:17.677Z,94729.75
2022-12-19T07:31:49.448Z,94727.06
2022-12-19T07:33:21.928Z,94722.59
2022-12-19T07:34:53.832Z,94721.38
2022-12-19T07:36:25.462Z,94729.09
2022-12-19T07:38:04.365Z,94727.66
2022-12-19T07:39:35.894Z,94718.47
2022-12-19T07:41:07.469Z,94725.00
2022-12-19T07:42:39.112Z,94734.59
2022-12-19T07:44:13.395Z,94737.66
2022-12-19T07:45:45.135Z,94734.22
2022-12-19T07:47:19.733Z,94744.41
2022-12-19T07:48:53.898Z,94740.13
2022-12-19T07:50:25.609Z,94744.81
2022-12-19T07:51:57.297Z,94744.41
2022-12-19T07:53:28.929Z,94751.94
2022-12-19T07:55:00.726Z,94753.16
2022-12-19T07:56:32.340Z,94753.56
2022-12-19T07:58:04.441Z,94748.06
2022-12-19T07:59:39.162Z,94750.28
2022-12-19T08:03:01.097Z,94759.03
2022-12-19T08:04:32.735Z,94760.69
2022-12-19T08:06:05.238Z,94757.22
2022-12-19T08:07:36.755Z,94765.38
2022-12-19T08:09:08.284Z,94771.06
2022-12-19T08:10:41.600Z,94766.59
2022-12-19T08:12:17.083Z,94765.78
2022-12-19T08:13:51.523Z,94766.38
2022-12-19T08:15:23.605Z,94768.00
2022-12-19T08:18:50.222Z,94762.50
2022-12-19T08:20:22.107Z,94759.03
2022-12-19T08:21:54.290Z,94766.97
2022-12-19T08:23:28.511Z,94754.13
2022-12-19T08:25:06.127Z,94760.84
2022-12-19T08:26:41.834Z,94764.94
2022-12-19T08:28:16.137Z,94764.31
2022-12-19T08:29:47.701Z,94766.16
2022-12-19T08:31:19.487Z,94764.53
2022-12-19T08:32:57.759Z,94766.97
2022-12-19T08:34:32.323Z,94770.22
2022-12-19T08:36:22.933Z,94768.78
2022-12-19T08:38:01.974Z,94776.13
2022-12-19T08:39:39.644Z,94781.59
2022-12-19T08:41:14.205Z,94778.34
2022-12-19T08:42:45.808Z,94770.78
2022-12-19T08:44:19.317Z,94767.47
2022-12-19T08:45:51.088Z,94767.69
2022-12-19T08:47:25.844Z,94773.00
2022-12-19T08:49:00.152Z,94770.53
2022-12-19T08:50:31.944Z,94773.03
2022-12-19T08:52:06.650Z,94764.06
2022-12-19T08:53:41.547Z,94767.31
2022-12-19T08:55:16.181Z,94756.09
2022-12-19T08:56:53.766Z,94761.56
2022-12-19T08:59:00.007Z,94757.53
2022-12-19T09:01:05.761Z,94752.59
2022-12-19T09:06:53.536Z,94749.47
2022-12-19T09:11:12.962Z,94756.78
2022-12-19T09:18:09.308Z,94746.81
2022-12-19T09:20:36.148Z,94749.03
2022-12-19T09:26:17.119Z,94742.44
2022-12-19T09:28:28.029Z,94734.47
2022-12-19T09:30:40.828Z,94740.91
2022-12-19T09:36:20.758Z,94717.03
2022-12-19T09:38:25.916Z,94723.50
2022-12-19T09:40:05.463Z,94711.94
2022-12-19T09:42:28.132Z,94712.66
2022-12-19T09:44:18.351Z,94712.69
2022-12-19T09:46:09.893Z,94704.38
2022-12-19T09:47:45.527Z,94694.63
2022-12-19T09:49:39.803Z,94698.78
2022-12-19T09:51:32.561Z,94702.47
2022-12-19T09:53:11.215Z,94700.56
2022-12-19T09:54:53.193Z,94695.94
2022-12-19T09:56:30.152Z,94690.31
2022-12-19T09:58:23.603Z,94685.72
2022-12-19T09:59:57.566Z,94683.66
2022-12-19T10:01:38.920Z,94675.06
2022-12-19T10:03:38.737Z,94679.66
2022-12-19T10:05:51.740Z,94679.84
2022-12-19T10:07:52.990Z,94687.25
2022-12-19T10:10:01.032Z,94673.34
2022-12-19T10:13:19.563Z,94660.91
2022-12-19T10:15:14.407Z,94669.22
2022-12-19T10:17:22.622Z,94667.75
2022-12-19T10:18:56.442Z,94667.59
2022-12-19T10:20:43.169Z,94661.03
2022-12-19T10:22:19.262Z,94660.47
2022-12-19T10:23:54.445Z,94670.94
2022-12-19T10:25:31.205Z,94655.34
2022-12-19T10:29:15.110Z,94653.66
2022-12-19T10:31:20.650Z,94647.69
2022-12-19T10:33:20.144Z,94647.13
2022-12-19T10:35:18.217Z,94643.28
2022-12-19T10:37:27.690Z,94636.75
2022-12-19T10:38:57.577Z,94635.25
2022-12-19T10:40:50.759Z,94629.41
2022-12-19T10:42:29.849Z,94634.78
2022-12-19T10:44:19.510Z,94636.88
2022-12-19T10:45:55.225Z,94632.25
2022-12-19T10:47:51.513Z,94635.06
2022-12-19T10:49:49.604Z,94637.78
2022-12-19T10:51:27.878Z,94634.53
2022-12-19T10:53:09.287Z,94629.13
2022-12-19T10:54:42.014Z,94626.06
2022-12-19T10:56:14.376Z,94632.63
2022-12-19T10:57:53.598Z,94632.50
2022-12-19T10:59:25.759Z,94627.56
2022-12-19T11:01:27.761Z,94627.81
2022-12-19T11:03:25.291Z,94634.69
2022-12-19T11:04:56.960Z,94629.25
2022-12-19T11:06:34.713Z,94629.09
2022-12-19T11:08:31.429Z,94640.44
2022-12-19T11:11:43.505Z,94645.88
2022-12-19T11:15:24.876Z,94636.94
2022-12-19T11:18:32.136Z,94635.69
2022-12-19T11:23:56.133Z,94633.75
2022-12-19T11:26:47.491Z,94629.38
2022-12-19T11:29:26.152Z,94625.34
2022-12-19T11:29:34.803Z,94623.66
2022-12-19T11:29:54.650Z,94617.44
2022-12-19T11:30:35.541Z,94614.66
2022-12-19T11:30:48.000Z,94610.53
2022-12-19T11:32:46.193Z,94613.09
2022-12-19T11:34:38.185Z,94608.69
2022-12-19T11:36:16.960Z,94613.28
2022-12-19T11:38:10.021Z,94608.66
2022-12-19T11:39:47.565Z,94605.38
2022-12-19T11:41:40.037Z,94603.41
2022-12-19T11:43:45.500Z,94592.81
2022-12-19T11:45:18.479Z,94614.91
2022-12-19T11:47:02.189Z,94618.31
2022-12-19T11:48:57.928Z,94621.41
2022-12-19T11:50:44.610Z,94612.75
2022-12-19T11:54:47.563Z,94621.88
2022-12-19T11:56:21.071Z,94617.91
2022-12-19T11:57:52.785Z,94619.03
2022-12-19T11:59:35.058Z,94622.50
2022-12-19T12:01:07.076Z,94612.63
2022-12-19T12:02:59.661Z,94618.22
2022-12-19T12:04:48.981Z,94615.47
2022-12-19T12:06:31.453Z,94611.84
2022-12-19T12:10:01.017Z,94615.84
2022-12-19T12:14:35.528Z,94590.94
2022-12-19T12:21:00.182Z,94614.84
2022-12-19T12:25:26.771Z,94614.66
2022-12-19T12:27:57.930Z,94626.53
2022-12-19T12:31:00.481Z,94617.78
2022-12-19T12:31:05.842Z,94631.34
2022-12-19T12:31:14.692Z,94618.75
2022-12-19T12:31:43.660Z,94614.69
2022-12-19T12:32:03.364Z,94628.63
2022-12-19T12:32:04.346Z,94630.94
2022-12-19T12:35:38.187Z,94612.47
2022-12-19T12:39:53.882Z,94617.56
2022-12-19T12:42:17.907Z,94617.56
2022-12-19T12:44:15.408Z,94622.50
2022-12-19T12:47:35.530Z,94622.63
2022-12-19T12:49:33.734Z,94623.53
2022-12-19T12:51:11.360Z,94627.88
2022-12-19T12:52:54.062Z,94627.97
2022-12-19T12:54:35.528Z,94628.06
2022-12-19T12:56:08.081Z,94634.66
2022-12-19T12:57:39.983Z,94632.22
2022-12-19T12:59:53.349Z,94622.59
2022-12-19T13:01:33.914Z,94619.63
2022-12-19T13:03:26.319Z,94607.28
2022-12-19T13:05:03.841Z,94614.59
2022-12-19T13:06:36.954Z,94610.53
2022-12-19T13:08:26.988Z,94607.13
2022-12-19T13:10:06.678Z,94622.16
2022-12-19T13:11:57.010Z,94630.75
2022-12-19T13:13:56.479Z,94636.84
2022-12-19T13:15:29.942Z,94633.63
2022-12-19T13:17:08.139Z,94640.56
2022-12-19T13:18:39.773Z,94648.28
2022-12-19T13:20:14.579Z,94640.78
2022-12-19T13:22:24.649Z,94646.97
2022-12-19T13:24:22.257Z,94654.13
2022-12-19T13:25:54.042Z,94655.34
2022-12-19T13:29:57.011Z,94639.88
2022-12-19T13:31:28.822Z,94637.97
2022-12-19T13:33:00.466Z,94632.19
2022-12-19T13:34:43.989Z,94633.44
2022-12-19T13:39:51.849Z,94626.56
2022-12-19T13:39:54.912Z,94628.72
2022-12-19T13:40:54.284Z,94636.72
2022-12-19T13:42:48.089Z,94651.03
2022-12-19T13:44:22.507Z,94644.91
2022-12-19T13:46:03.675Z,94649.28
2022-12-19T13:47:36.867Z,94650.06
2022-12-19T13:49:15.832Z,94649.19
2022-12-19T13:51:00.808Z,94647.19
2022-12-19T13:52:39.029Z,94650.06
2022-12-19T13:54:23.335Z,94654.59
2022-12-19T13:56:07.222Z,94645.00
2022-12-19T13:57:53.400Z,94647.19
2022-12-19T13:59:26.788Z,94642.47
2022-12-19T14:01:01.557Z,94643.81
2022-12-19T14:02:44.697Z,94647.38
2022-12-19T14:06:15.171Z,94653.53
2022-12-19T14:08:31.170Z,94656.50
2022-12-19T14:11:35.381Z,94664.09
2022-12-19T14:13:47.186Z,94659.06
2022-12-19T14:16:34.854Z,94670.13
2022-12-19T14:18:42.672Z,94670.88
2022-12-19T14:22:03.849Z,94663.28
2022-12-19T14:22:28.541Z,94667.19
2022-12-19T14:24:17.174Z,94668.47
2022-12-19T14:28:19.657Z,94669.31
2022-12-19T14:28:24.714Z,94664.38
2022-12-19T14:30:29.165Z,94662.22
2022-12-19T14:31:58.385Z,94670.72
2022-12-19T14:34:04.321Z,94670.16
2022-12-19T14:36:09.593Z,94669.78
2022-12-19T14:39:21.131Z,94665.53
2022-12-19T14:39:32.780Z,94659.28
2022-12-19T14:43:56.344Z,94666.44
2022-12-19T14:53:08.348Z,94667.97
2022-12-19T14:54:08.506Z,94668.97
2022-12-19T14:54:16.120Z,94653.75
2022-12-19T14:54:37.408Z,94650.94
2022-12-19T14:54:37.410Z,94647.25
2022-12-19T14:56:16.946Z,94649.31
2022-12-19T14:58:51.320Z,94641.16
2022-12-19T14:59:30.502Z,94641.41
2022-12-19T15:01:09.608Z,94641.41
2022-12-19T15:02:43.316Z,94643.25
2022-12-19T15:04:50.555Z,94644.88
2022-12-19T15:06:19.820Z,94634.91
2022-12-19T15:08:08.837Z,94637.16
2022-12-19T15:11:04.818Z,94632.50
2022-12-19T15:12:05.895Z,94639.88
2022-12-19T15:14:52.405Z,94631.72
2022-12-19T15:15:37.860Z,94623.38
2022-12-19T15:17:22.839Z,94624.03
2022-12-19T15:18:56.824Z,94623.63
2022-12-19T15:20:28.583Z,94626.94
2022-12-19T15:22:00.676Z,94615.72
2022-12-19T15:23:33.176Z,94622.91
2022-12-19T15:25:36.114Z,94623.13
2022-12-19T15:27:02.669Z,94618.84
2022-12-19T15:28:41.124Z,94629.91
2022-12-19T15:30:14.365Z,94630.53
2022-12-19T15:31:46.048Z,94623.19
2022-12-19T15:33:18.878Z,94638.13
2022-12-19T15:34:54.673Z,94633.22
2022-12-19T15:36:29.380Z,94630.56
2022-12-19T15:38:00.940Z,94630.38
2022-12-19T15:39:32.535Z,94627.50
2022-12-19T15:41:08.817Z,94640.75
2022-12-19T15:42:47.884Z,94630.56
2022-12-19T15:44:28.156Z,94638.13
2022-12-19T15:46:00.250Z,94649.97
2022-12-19T15:47:40.268Z,94637.75
2022-12-19T15:49:16.220Z,94641.00
2022-12-19T15:50:47.828Z,94636.13
2022-12-19T15:52:22.194Z,94649.63
2022-12-19T15:54:22.097Z,94647.78
2022-12-19T15:55:52.251Z,94647.78
2022-12-19T15:57:23.963Z,94643.06
2022-12-19T15:58:56.612Z,94647.34
2022-12-19T16:00:29.435Z,94650.81
2022-12-19T16:02:06.449Z,94651.41
2022-12-19T16:03:38.617Z,94645.50
2022-12-19T16:05:16.489Z,94648.34
2022-12-19T16:06:48.406Z,94645.28
2022-12-19T16:08:21.301Z,94643.88
2022-12-19T16:09:53.157Z,94647.53
2022-12-19T16:11:28.556Z,94651.81
2022-12-19T16:13:04.521Z,94651.00
2022-12-19T16:14:36.066Z,94652.03
2022-12-19T16:16:15.487Z,94646.34
2022-12-19T16:17:48.137Z,94645.53
2022-12-19T16:19:23.165Z,94646.19
2022-12-19T16:20:58.714Z,94651.69
2022-12-19T16:22:30.243Z,94648.41
2022-12-19T16:24:02.214Z,94652.09
2022-12-19T16:25:35.711Z,94654.13
2022-12-19T16:27:10.320Z,94655.16
2022-12-19T16:28:48.184Z,94652.31
2022-12-19T16:30:28.050Z,94660.28
2022-12-19T16:32:02.369Z,94651.72
2022-12-19T16:33:36.707Z,94657.41
2022-12-19T16:35:13.477Z,94661.91
2022-12-19T16:36:45.111Z,94660.28
2022-12-19T16:38:17.003Z,94650.91
2022-12-19T16:39:48.599Z,94654.19
2022-12-19T16:41:22.589Z,94657.41
2022-12-19T16:43:20.068Z,94664.53
2022-12-19T16:44:51.745Z,94660.28
2022-12-19T16:46:31.200Z,94665.59
2022-12-19T16:48:09.534Z,94662.72
2022-12-19T16:49:41.246Z,94655.78
2022-12-19T16:51:24.438Z,94661.06
2022-12-19T16:52:56.496Z,94650.72
2022-12-19T16:54:28.190Z,94659.88
2022-12-19T16:56:00.018Z,94662.31
2022-12-19T16:57:31.708Z,94658.03
2022-12-19T16:59:09.735Z,94658.25
2022-12-19T17:00:45.001Z,94658.03
2022-12-19T17:02:43.558Z,94657.84
2022-12-19T17:04:24.590Z,94660.28
2022-12-19T17:05:56.305Z,94658.66
2022-12-19T17:07:31.133Z,94662.31
2022-12-19T17:09:06.469Z,94662.72
2022-12-19T17:10:38.358Z,94661.91
2022-12-19T17:12:10.202Z,94668.03
2022-12-19T17:15:36.877Z,94678.66
2022-12-19T17:17:09.606Z,94672.53
2022-12-19T17:20:32.908Z,94677.59
2022-12-19T17:22:06.798Z,94674.75
2022-12-19T17:23:38.409Z,94674.13
2022-12-19T17:25:17.541Z,94671.72
2022-12-19T17:26:52.153Z,94675.59
2022-12-19T17:28:23.755Z,94669.06
2022-12-19T17:29:58.680Z,94673.13
2022-12-19T17:31:30.508Z,94674.75
2022-12-19T17:33:15.203Z,94675.16
2022-12-19T17:34:46.977Z,94671.50
2022-12-19T17:36:27.646Z,94672.91
2022-12-19T17:38:01.746Z,94675.81
2022-12-19T17:39:34.274Z,94672.75
2022-12-19T17:41:06.628Z,94666.22
2022-12-19T17:42:38.696Z,94677.81
2022-12-19T17:44:32.745Z,94676.41
2022-12-19T17:46:04.544Z,94680.69
2022-12-19T17:47:36.167Z,94681.50
2022-12-19T17:49:10.490Z,94683.13
2022-12-19T17:50:42.081Z,94682.72
2022-12-19T17:52:18.282Z,94681.91
2022-12-19T17:53:50.246Z,94682.31
2022-12-19T17:55:26.288Z,94681.88
2022-12-19T17:56:58.038Z,94677.84
2022-12-19T17:58:30.176Z,94677.84
2022-12-19T18:00:01.824Z,94677.22
2022-12-19T18:01:33.556Z,94676.22
2022-12-19T18:03:17.198Z,94668.47
2022-12-19T18:04:49.241Z,94673.34
2022-12-19T18:06:21.336Z,94676.22
2022-12-19T18:07:52.957Z,94681.09
2022-12-19T18:09:24.641Z,94676.00
2022-12-19T18:10:59.434Z,94676.59
2022-12-19T18:12:31.199Z,94673.53
2022-12-19T18:14:02.767Z,94677.41
2022-12-19T18:15:34.459Z,94681.06
2022-12-19T18:17:06.142Z,94675.00
2022-12-19T18:18:37.890Z,94672.94
2022-12-19T18:20:16.461Z,94682.31
2022-12-19T18:21:48.122Z,94685.34
2022-12-19T18:23:20.810Z,94686.34
2022-12-19T18:24:52.491Z,94690.44
2022-12-19T18:26:24.143Z,94692.47
2022-12-19T18:27:55.843Z,94697.75
2022-12-19T18:29:27.557Z,94703.69
2022-12-19T18:31:03.316Z,94705.13
2022-12-19T18:32:35.048Z,94706.94
2022-12-19T18:34:08.301Z,94702.69
2022-12-19T18:35:41.127Z,94697.97
2022-12-19T18:37:13.595Z,94702.06
2022-12-19T18:38:45.315Z,94701.66
2022-12-19T18:40:23.286Z,94701.44
2022-12-19T18:41:58.243Z,94708.56
2022-12-19T18:43:31.303Z,94706.72
2022-12-19T18:45:03.085Z,94706.72
2022-12-19T18:46:35.094Z,94701.03
2022-12-19T18:48:08.089Z,94698.78
2022-12-19T18:49:39.928Z,94704.50
2022-12-19T18:51:16.741Z,94704.91
2022-12-19T18:52:48.929Z,94699.41
2022-12-19T18:54:20.975Z,94705.09
2022-12-19T18:55:53.053Z,94699.59
2022-12-19T18:57:24.638Z,94704.09
2022-12-19T18:58:56.210Z,94707.97
2022-12-19T19:00:27.921Z,94703.06
2022-12-19T19:01:59.672Z,94706.34
2022-12-19T19:03:35.687Z,94719.78
2022-12-19T19:05:10.212Z,94712.03
2022-12-19T19:06:50.033Z,94711.41
2022-12-19T19:08:24.092Z,94709.16
2022-12-19T19:09:55.755Z,94704.28
2022-12-19T19:11:27.914Z,94700.00
2022-12-19T19:13:02.682Z,94696.56
2022-12-19T19:14:36.994Z,94693.28
2022-12-19T19:16:26.540Z,94697.34
2022-12-19T19:17:59.215Z,94704.28
2022-12-19T19:19:30.892Z,94704.66
2022-12-19T19:21:02.370Z,94711.59
2022-12-19T19:22:34.688Z,94706.09
2022-12-19T19:24:08.187Z,94705.47
2022-12-19T19:25:39.794Z,94707.69
2022-12-19T19:27:11.807Z,94704.47
2022-12-19T19:28:48.567Z,94708.31
2022-12-19T19:30:23.539Z,94704.25
2022-12-19T19:31:55.175Z,94706.25
2022-12-19T19:33:34.532Z,94705.06
2022-12-19T19:35:06.684Z,94705.44
2022-12-19T19:36:38.560Z,94716.03
2022-12-19T19:38:10.133Z,94703.00
2022-12-19T19:39:42.246Z,94703.19
2022-12-19T19:41:13.848Z,94708.28
2022-12-19T19:42:45.607Z,94713.81
2022-12-19T19:44:17.517Z,94710.94
2022-12-19T19:45:50.325Z,94713.56
2022-12-19T19:47:25.487Z,94716.44
2022-12-19T19:48:57.344Z,94719.72
2022-12-19T19:50:29.655Z,94720.13
2022-12-19T19:52:03.129Z,94719.72
2022-12-19T19:53:36.215Z,94711.78
2022-12-19T19:55:08.201Z,94716.25
2022-12-19T19:56:39.776Z,94715.44
2022-12-19T19:58:11.338Z,94718.72
2022-12-19T19:59:42.861Z,94719.28
2022-12-19T20:01:14.628Z,94704.66
2022-12-19T20:02:46.659Z,94723.38
2022-12-19T20:04:18.842Z,94718.47
2022-12-19T20:05:50.546Z,94719.09
2022-12-19T20:07:22.104Z,94719.28
2022-12-19T20:08:54.085Z,94709.09
2022-12-19T20:10:25.625Z,94714.78
2022-12-19T20:11:57.365Z,94721.28
2022-12-19T20:13:29.478Z,94713.75
2022-12-19T20:15:01.093Z,94717.00